createdAt,value
2019-05-20T00:00:43.306Z,13.79
2019-05-20T00:03:12.674Z,13.80
2019-05-20T00:05:42.370Z,13.75
2019-05-20T00:08:11.923Z,13.76
2019-05-20T00:10:41.278Z,13.68
2019-05-20T00:13:11.785Z,13.66
2019-05-20T00:15:42.585Z,13.63
2019-05-20T00:18:11.688Z,13.68
2019-05-20T00:20:40.989Z,13.58
2019-05-20T00:23:10.725Z,13.58
2019-05-20T00:25:40.963Z,13.71
2019-05-20T00:28:10.269Z,13.65
2019-05-20T00:30:39.602Z,13.58
2019-05-20T00:33:08.952Z,13.59
2019-05-20T00:35:38.216Z,13.62
2019-05-20T00:38:07.979Z,13.67
2019-05-20T00:40:39.750Z,13.62
2019-05-20T00:43:09.052Z,13.56
2019-05-20T00:45:38.325Z,13.50
2019-05-20T00:48:07.619Z,13.52
2019-05-20T00:50:36.903Z,13.49
2019-05-20T00:53:06.219Z,13.51
2019-05-20T00:55:36.939Z,13.55
2019-05-20T00:58:07.712Z,13.63
2019-05-20T01:00:37.283Z,13.72
2019-05-20T01:03:06.576Z,13.87
2019-05-20T01:05:35.854Z,13.83
2019-05-20T01:08:05.160Z,13.88
2019-05-20T01:10:34.466Z,13.80
2019-05-20T01:13:03.775Z,13.74
2019-05-20T01:15:33.072Z,13.85
2019-05-20T01:18:03.392Z,13.69
2019-05-20T01:20:32.695Z,13.68
2019-05-20T01:23:01.988Z,13.65
2019-05-20T01:25:34.981Z,13.63
2019-05-20T01:28:04.265Z,13.73
2019-05-20T01:30:33.589Z,13.72
2019-05-20T01:33:13.298Z,13.67
2019-05-20T01:35:33.926Z,13.79
2019-05-20T01:38:03.219Z,13.71
2019-05-20T01:40:34.349Z,13.75
2019-05-20T01:43:03.654Z,13.68
2019-05-20T01:45:32.930Z,13.62
2019-05-20T01:48:02.245Z,13.65
2019-05-20T01:50:31.601Z,13.58
2019-05-20T01:53:00.891Z,13.57
2019-05-20T01:55:30.198Z,13.48
2019-05-20T01:58:00.342Z,13.45
2019-05-20T02:00:29.621Z,13.47
2019-05-20T02:02:58.937Z,13.56
2019-05-20T02:05:28.219Z,13.56
2019-05-20T02:07:57.526Z,13.49
2019-05-20T02:10:26.815Z,13.41
2019-05-20T02:12:56.122Z,13.45
2019-05-20T02:15:34.529Z,13.49
2019-05-20T02:18:03.805Z,13.47
2019-05-20T02:20:33.107Z,13.28
2019-05-20T02:23:17.540Z,13.32
2019-05-20T02:25:50.116Z,13.27
2019-05-20T02:28:19.502Z,13.30
2019-05-20T02:30:48.814Z,13.18
2019-05-20T02:33:18.098Z,13.22
2019-05-20T02:35:47.388Z,13.20
2019-05-20T02:38:16.684Z,13.18
2019-05-20T02:40:45.963Z,13.01
2019-05-20T02:43:15.591Z,12.95
2019-05-20T02:45:44.852Z,12.95
2019-05-20T02:48:14.172Z,12.90
2019-05-20T02:50:43.448Z,12.89
2019-05-20T02:53:12.808Z,12.94
2019-05-20T02:55:42.099Z,12.94
2019-05-20T02:58:11.400Z,12.79
2019-05-20T03:00:40.758Z,12.96
2019-05-20T03:03:10.107Z,12.92
2019-05-20T03:05:39.403Z,12.90
2019-05-20T03:08:08.713Z,12.92
2019-05-20T03:10:37.990Z,12.93
2019-05-20T03:13:07.277Z,12.88
2019-05-20T03:15:36.608Z,12.88
2019-05-20T03:18:05.944Z,12.82
2019-05-20T03:20:35.252Z,12.84
2019-05-20T03:23:04.536Z,12.85
2019-05-20T03:25:33.835Z,12.76
2019-05-20T03:28:03.159Z,12.79
2019-05-20T03:30:32.484Z,12.75
2019-05-20T03:33:01.784Z,12.73
2019-05-20T03:35:31.086Z,12.65
2019-05-20T03:38:00.353Z,12.81
2019-05-20T03:40:29.649Z,12.69
2019-05-20T03:43:00.107Z,12.93
2019-05-20T03:45:29.417Z,12.91
2019-05-20T03:47:58.686Z,12.69
2019-05-20T03:50:27.970Z,12.70
2019-05-20T03:52:57.682Z,12.65
2019-05-20T03:55:27.025Z,12.65
2019-05-20T03:57:56.325Z,12.65
2019-05-20T04:00:56.774Z,12.71
2019-05-20T04:03:26.046Z,12.75
2019-05-20T04:05:56.453Z,12.85
2019-05-20T04:08:25.774Z,12.87
2019-05-20T04:10:55.049Z,12.96
2019-05-20T04:13:24.456Z,12.92
2019-05-20T04:15:53.757Z,12.82
2019-05-20T04:18:23.054Z,12.75
2019-05-20T04:20:52.430Z,12.87
2019-05-20T04:23:21.758Z,12.97
2019-05-20T04:25:51.117Z,13.09
2019-05-20T04:28:20.441Z,13.12
2019-05-20T04:30:49.808Z,13.05
2019-05-20T04:33:20.365Z,13.07
2019-05-20T04:35:50.130Z,13.10
2019-05-20T04:38:19.594Z,13.18
2019-05-20T04:40:48.854Z,13.24
2019-05-20T04:43:18.133Z,13.22
2019-05-20T04:45:47.486Z,13.37
2019-05-20T04:48:16.763Z,13.30
2019-05-20T04:50:46.236Z,13.33
2019-05-20T04:53:15.564Z,13.35
2019-05-20T04:55:44.882Z,13.37
2019-05-20T04:58:14.205Z,13.40
2019-05-20T05:00:59.891Z,13.42
2019-05-20T05:03:29.410Z,13.50
2019-05-20T05:05:59.094Z,13.51
2019-05-20T05:08:30.608Z,13.45
2019-05-20T05:11:02.043Z,13.39
2019-05-20T05:13:32.110Z,13.61
2019-05-20T05:16:02.252Z,13.49
2019-05-20T05:18:32.107Z,13.51
2019-05-20T05:21:01.797Z,13.49
2019-05-20T05:23:31.775Z,13.49
2019-05-20T05:26:01.551Z,13.48
2019-05-20T05:28:31.298Z,13.57
2019-05-20T05:31:01.172Z,13.71
2019-05-20T05:33:30.856Z,13.68
2019-05-20T05:36:00.463Z,13.72
2019-05-20T05:38:30.132Z,13.77
2019-05-20T05:40:59.560Z,13.91
2019-05-20T05:43:29.145Z,14.14
2019-05-20T05:45:58.758Z,14.50
2019-05-20T05:48:28.399Z,14.51
2019-05-20T05:50:57.770Z,14.48
2019-05-20T05:53:27.673Z,14.67
2019-05-20T05:55:57.483Z,14.43
2019-05-20T05:58:26.890Z,14.69
2019-05-20T06:00:56.188Z,14.44
2019-05-20T06:03:25.489Z,14.33
2019-05-20T06:06:10.690Z,14.30
2019-05-20T06:08:25.791Z,14.10
2019-05-20T06:10:55.199Z,14.33
2019-05-20T06:13:24.619Z,14.46
2019-05-20T06:15:54.701Z,14.48
2019-05-20T06:18:29.753Z,14.63
2019-05-20T06:20:59.084Z,14.74
2019-05-20T06:23:28.398Z,14.87
2019-05-20T06:25:57.698Z,14.71
2019-05-20T06:28:27.005Z,15.01
2019-05-20T06:30:56.271Z,15.03
2019-05-20T06:33:25.759Z,15.19
2019-05-20T06:35:55.040Z,15.01
2019-05-20T06:38:42.309Z,15.08
2019-05-20T06:41:11.609Z,15.03
2019-05-20T06:43:40.937Z,15.63
2019-05-20T06:46:10.286Z,15.82
2019-05-20T06:48:39.620Z,16.07
2019-05-20T06:51:09.220Z,16.31
2019-05-20T06:53:38.530Z,16.39
2019-05-20T06:56:07.808Z,16.46
2019-05-20T06:58:37.064Z,16.60
2019-05-20T07:01:06.383Z,16.78
2019-05-20T07:03:35.979Z,16.55
2019-05-20T07:06:05.383Z,17.50
2019-05-20T07:08:34.653Z,17.89
2019-05-20T07:11:03.977Z,17.89
2019-05-20T07:13:33.262Z,17.84
2019-05-20T07:16:02.926Z,17.70
2019-05-20T07:18:32.192Z,18.32
2019-05-20T07:21:01.483Z,17.91
2019-05-20T07:23:30.749Z,18.23
2019-05-20T07:26:00.044Z,18.21
2019-05-20T07:28:29.326Z,18.94
2019-05-20T07:30:58.769Z,18.74
2019-05-20T07:33:28.213Z,18.88
2019-05-20T07:35:57.491Z,20.72
2019-05-20T07:38:26.760Z,21.48
2019-05-20T07:40:56.049Z,21.04
2019-05-20T07:43:26.059Z,22.34
2019-05-20T07:45:55.527Z,22.76
2019-05-20T07:48:26.728Z,22.23
2019-05-20T07:50:57.029Z,21.54
2019-05-20T07:53:26.744Z,20.67
2019-05-20T07:56:04.227Z,20.20
2019-05-20T07:58:37.048Z,19.69
2019-05-20T08:01:06.554Z,18.82
2019-05-20T08:03:38.601Z,18.68
2019-05-20T08:06:06.969Z,18.68
2019-05-20T08:08:36.279Z,18.28
2019-05-20T08:11:05.882Z,18.19
2019-05-20T08:13:35.326Z,17.55
2019-05-20T08:16:04.897Z,17.68
2019-05-20T08:18:34.158Z,17.55
2019-05-20T08:21:03.589Z,17.43
2019-05-20T08:23:32.853Z,17.18
2019-05-20T08:26:02.145Z,17.24
2019-05-20T08:28:32.763Z,17.18
2019-05-20T08:31:02.081Z,17.05
2019-05-20T08:33:31.524Z,16.89
2019-05-20T08:36:00.926Z,16.73
2019-05-20T08:38:30.378Z,16.41
2019-05-20T08:40:59.659Z,16.43
2019-05-20T08:43:29.028Z,16.13
2019-05-20T08:45:58.532Z,16.24
2019-05-20T08:48:27.837Z,16.17
2019-05-20T08:50:57.113Z,16.15
2019-05-20T08:53:26.430Z,16.20
2019-05-20T08:55:55.704Z,16.03
2019-05-20T08:58:25.014Z,15.94
2019-05-20T09:00:54.307Z,16.00
2019-05-20T09:03:23.592Z,16.00
2019-05-20T09:05:53.019Z,15.99
2019-05-20T09:08:22.324Z,15.87
2019-05-20T09:10:51.626Z,15.98
2019-05-20T09:13:20.946Z,16.16
2019-05-20T09:15:50.331Z,16.17
2019-05-20T09:18:19.623Z,16.22
2019-05-20T09:20:48.942Z,16.15
2019-05-20T09:23:18.261Z,16.09
2019-05-20T09:25:47.579Z,16.02
2019-05-20T09:28:16.877Z,16.13
2019-05-20T09:30:46.771Z,16.24
2019-05-20T09:33:16.584Z,16.19
2019-05-20T09:35:45.913Z,16.08
2019-05-20T09:38:20.938Z,16.25
2019-05-20T09:40:49.100Z,16.18
2019-05-20T09:43:18.495Z,16.05
2019-05-20T09:46:04.144Z,16.01
2019-05-20T09:48:18.925Z,16.03
2019-05-20T09:50:48.219Z,16.11
2019-05-20T09:53:17.513Z,15.99
2019-05-20T09:55:46.869Z,16.06
2019-05-20T09:58:16.226Z,16.08
2019-05-20T10:00:46.186Z,16.18
2019-05-20T10:03:15.480Z,16.26
2019-05-20T10:05:44.763Z,16.18
2019-05-20T10:08:15.261Z,16.36
2019-05-20T10:10:44.570Z,16.37
2019-05-20T10:13:13.893Z,16.49
2019-05-20T10:15:43.213Z,16.67
2019-05-20T10:18:12.605Z,16.59
2019-05-20T10:20:41.900Z,16.41
2019-05-20T10:23:15.054Z,16.57
2019-05-20T10:25:42.295Z,16.52
2019-05-20T10:28:11.586Z,16.73
2019-05-20T10:30:40.952Z,16.51
2019-05-20T10:33:10.943Z,16.43
2019-05-20T10:35:40.713Z,16.26
2019-05-20T10:38:09.988Z,16.28
2019-05-20T10:40:39.386Z,16.50
2019-05-20T10:43:08.671Z,16.47
2019-05-20T10:45:38.042Z,16.39
2019-05-20T10:48:08.921Z,16.57
2019-05-20T10:50:38.642Z,16.52
2019-05-20T10:53:07.933Z,16.39
2019-05-20T10:55:37.241Z,16.35
2019-05-20T10:58:06.561Z,16.43
2019-05-20T11:00:35.879Z,16.52
2019-05-20T11:03:05.239Z,16.46
2019-05-20T11:05:34.698Z,16.47
2019-05-20T11:08:04.025Z,16.62
2019-05-20T11:10:33.306Z,16.64
2019-05-20T11:13:02.864Z,16.57
2019-05-20T11:15:32.363Z,16.34
2019-05-20T11:18:01.730Z,16.53
2019-05-20T11:20:31.026Z,16.59
2019-05-20T11:23:01.293Z,16.67
2019-05-20T11:25:30.818Z,16.58
2019-05-20T11:28:00.214Z,16.65
2019-05-20T11:30:29.697Z,16.73
2019-05-20T11:32:58.979Z,16.60
2019-05-20T11:35:28.340Z,16.74
2019-05-20T11:37:57.699Z,16.57
2019-05-20T11:40:27.020Z,16.38
2019-05-20T11:42:56.300Z,16.52
2019-05-20T11:45:25.626Z,16.61
2019-05-20T11:47:54.948Z,16.49
2019-05-20T11:50:24.256Z,16.70
2019-05-20T11:52:53.577Z,16.75
2019-05-20T11:55:22.891Z,17.12
2019-05-20T11:57:52.148Z,17.13
2019-05-20T12:00:21.599Z,17.36
2019-05-20T12:02:50.933Z,17.46
2019-05-20T12:05:20.209Z,17.67
2019-05-20T12:07:49.551Z,17.66
2019-05-20T12:10:20.295Z,17.66
2019-05-20T12:12:49.604Z,17.80
2019-05-20T12:15:19.193Z,17.77
2019-05-20T12:17:48.586Z,17.49
2019-05-20T12:20:18.398Z,17.51
2019-05-20T12:22:47.691Z,17.66
2019-05-20T12:25:16.981Z,17.58
2019-05-20T12:27:46.316Z,17.51
2019-05-20T12:30:17.824Z,17.36
2019-05-20T12:32:47.181Z,17.41
2019-05-20T12:35:16.605Z,17.35
2019-05-20T12:37:46.006Z,17.51
2019-05-20T12:40:15.688Z,17.40
2019-05-20T12:42:45.011Z,17.27
2019-05-20T12:45:14.482Z,17.53
2019-05-20T12:47:43.866Z,17.71
2019-05-20T12:50:13.529Z,17.78
2019-05-20T12:52:42.799Z,17.64
2019-05-20T12:55:12.298Z,17.53
2019-05-20T12:57:41.617Z,17.56
2019-05-20T13:00:12.998Z,17.62
2019-05-20T13:02:42.631Z,17.67
2019-05-20T13:05:12.622Z,17.92
2019-05-20T13:07:41.923Z,18.00
2019-05-20T13:10:28.337Z,18.04
2019-05-20T13:12:43.821Z,17.95
2019-05-20T13:15:13.439Z,17.95
2019-05-20T13:17:44.768Z,17.87
2019-05-20T13:20:14.267Z,17.74
2019-05-20T13:22:45.382Z,17.71
2019-05-20T13:25:14.787Z,17.77
2019-05-20T13:27:44.128Z,17.61
2019-05-20T13:30:14.006Z,17.56
2019-05-20T13:32:45.133Z,17.50
2019-05-20T13:35:14.841Z,17.66
2019-05-20T13:37:44.209Z,17.61
2019-05-20T13:40:13.681Z,17.57
2019-05-20T13:42:43.010Z,17.47
2019-05-20T13:45:12.628Z,17.52
2019-05-20T13:47:41.921Z,17.38
2019-05-20T13:50:13.249Z,17.49
2019-05-20T13:52:42.561Z,17.42
2019-05-20T13:55:12.376Z,17.67
2019-05-20T13:57:41.706Z,17.56
2019-05-20T14:00:12.552Z,17.72
2019-05-20T14:02:41.896Z,17.69
2019-05-20T14:05:11.722Z,17.76
2019-05-20T14:07:41.611Z,17.79
2019-05-20T14:10:12.485Z,17.85
2019-05-20T14:12:41.814Z,17.86
2019-05-20T14:15:12.447Z,17.96
2019-05-20T14:17:41.832Z,17.82
2019-05-20T14:20:11.621Z,17.59
2019-05-20T14:22:40.934Z,17.62
2019-05-20T14:25:10.435Z,17.59
2019-05-20T14:27:39.709Z,17.50
2019-05-20T14:30:10.211Z,17.31
2019-05-20T14:32:39.514Z,17.27
2019-05-20T14:35:09.208Z,17.20
2019-05-20T14:37:38.501Z,17.20
2019-05-20T14:40:08.334Z,17.06
2019-05-20T14:42:37.625Z,16.86
2019-05-20T14:45:08.471Z,16.82
2019-05-20T14:47:37.773Z,16.75
2019-05-20T14:50:07.636Z,16.66
2019-05-20T14:52:36.975Z,16.54
2019-05-20T14:55:06.536Z,16.43
2019-05-20T14:57:35.837Z,16.28
2019-05-20T15:00:06.188Z,16.15
2019-05-20T15:02:35.479Z,16.17
2019-05-20T15:05:05.211Z,16.07
2019-05-20T15:07:35.425Z,16.07
2019-05-20T15:10:08.140Z,15.94
2019-05-20T15:12:39.765Z,15.72
2019-05-20T15:15:11.799Z,15.69
2019-05-20T15:17:43.743Z,15.64
2019-05-20T15:20:14.297Z,15.54
2019-05-20T15:22:45.398Z,15.41
2019-05-20T15:25:18.193Z,15.21
2019-05-20T15:27:49.962Z,15.17
2019-05-20T15:30:20.126Z,15.23
2019-05-20T15:32:50.122Z,15.13
2019-05-20T15:35:19.536Z,15.21
2019-05-20T15:37:48.912Z,15.22
2019-05-20T15:40:28.048Z,15.04
2019-05-20T15:42:57.343Z,15.11
2019-05-20T15:45:26.683Z,15.12
2019-05-20T15:47:57.193Z,15.30
2019-05-20T15:50:26.476Z,15.18
2019-05-20T15:52:55.856Z,15.24
2019-05-20T15:55:25.516Z,15.21
2019-05-20T15:57:54.835Z,15.26
2019-05-20T16:00:24.333Z,15.14
2019-05-20T16:02:53.612Z,14.92
2019-05-20T16:05:22.938Z,14.75
2019-05-20T16:07:52.343Z,14.66
2019-05-20T16:10:21.643Z,14.52
2019-05-20T16:12:50.921Z,14.49
2019-05-20T16:15:20.211Z,14.45
2019-05-20T16:17:49.575Z,14.38
2019-05-20T16:20:20.326Z,14.38
2019-05-20T16:22:49.629Z,14.41
2019-05-20T16:25:20.386Z,14.29
2019-05-20T16:27:49.711Z,14.30
2019-05-20T16:30:19.235Z,14.27
2019-05-20T16:32:48.510Z,14.26
2019-05-20T16:35:18.124Z,14.25
2019-05-20T16:37:47.417Z,14.33
2019-05-20T16:40:16.971Z,14.21
2019-05-20T16:42:46.255Z,14.22
2019-05-20T16:45:15.886Z,14.22
2019-05-20T16:47:45.325Z,14.16
2019-05-20T16:50:15.200Z,14.15
2019-05-20T16:52:44.495Z,14.11
2019-05-20T16:55:16.548Z,14.15
2019-05-20T16:57:45.914Z,14.06
2019-05-20T17:00:30.815Z,13.97
2019-05-20T17:02:49.432Z,14.01
2019-05-20T17:05:19.046Z,13.89
2019-05-20T17:07:48.599Z,13.99
2019-05-20T17:10:18.441Z,13.97
2019-05-20T17:12:48.052Z,14.02
2019-05-20T17:15:18.238Z,13.87
2019-05-20T17:17:47.863Z,13.81
2019-05-20T17:20:18.257Z,13.75
2019-05-20T17:22:47.977Z,13.70
2019-05-20T17:25:18.640Z,13.70
2019-05-20T17:27:48.008Z,13.67
2019-05-20T17:30:17.721Z,13.62
2019-05-20T17:32:48.593Z,13.63
2019-05-20T17:35:17.934Z,13.63
2019-05-20T17:37:47.297Z,13.60
2019-05-20T17:40:17.144Z,13.65
2019-05-20T17:42:46.479Z,13.57
2019-05-20T17:45:16.894Z,13.50
2019-05-20T17:47:46.242Z,13.42
2019-05-20T17:50:17.835Z,13.36
2019-05-20T17:52:47.186Z,13.45
2019-05-20T17:55:18.696Z,13.51
2019-05-20T17:57:47.977Z,13.43
2019-05-20T18:00:20.445Z,13.43
2019-05-20T18:02:49.742Z,13.30
2019-05-20T18:05:19.641Z,13.45
2019-05-20T18:07:49.084Z,13.44
2019-05-20T18:10:20.525Z,13.29
2019-05-20T18:12:49.834Z,13.35
2019-05-20T18:15:19.442Z,13.23
2019-05-20T18:17:48.767Z,13.27
2019-05-20T18:20:18.728Z,13.17
2019-05-20T18:22:48.330Z,13.12
2019-05-20T18:25:18.215Z,13.02
2019-05-20T18:27:47.571Z,13.12
2019-05-20T18:30:17.483Z,13.12
2019-05-20T18:32:46.789Z,13.15
2019-05-20T18:35:16.474Z,12.94
2019-05-20T18:37:45.803Z,12.87
2019-05-20T18:40:15.625Z,13.06
2019-05-20T18:42:45.026Z,13.05
2019-05-20T18:45:14.300Z,13.08
2019-05-20T18:47:43.609Z,13.09
2019-05-20T18:50:13.435Z,13.16
2019-05-20T18:52:42.891Z,13.11
2019-05-20T18:55:12.392Z,13.14
2019-05-20T18:57:41.682Z,13.19
2019-05-20T19:00:12.422Z,13.05
2019-05-20T19:02:41.801Z,13.14
2019-05-20T19:05:11.239Z,13.19
2019-05-20T19:07:40.593Z,13.21
2019-05-20T19:10:10.430Z,13.20
2019-05-20T19:12:39.779Z,13.29
2019-05-20T19:15:11.029Z,13.25
2019-05-20T19:17:40.475Z,13.16
2019-05-20T19:20:10.179Z,13.09
2019-05-20T19:22:39.537Z,13.14
2019-05-20T19:25:09.081Z,13.12
2019-05-20T19:27:38.347Z,13.11
2019-05-20T19:30:08.998Z,13.06
2019-05-20T19:32:38.824Z,12.99
2019-05-20T19:35:09.386Z,13.09
2019-05-20T19:37:39.214Z,13.09
2019-05-20T19:40:09.381Z,12.99
2019-05-20T19:42:38.989Z,13.14
2019-05-20T19:45:08.729Z,13.16
2019-05-20T19:47:38.030Z,13.14
2019-05-20T19:50:07.961Z,13.14
2019-05-20T19:52:38.286Z,13.12
2019-05-20T19:55:09.146Z,13.17
2019-05-20T19:57:39.118Z,13.09
2019-05-20T20:00:11.970Z,13.21
2019-05-20T20:02:41.412Z,13.22
2019-05-20T20:05:11.233Z,13.18
2019-05-20T20:07:40.588Z,13.18
2019-05-20T20:10:10.172Z,13.07
2019-05-20T20:12:39.486Z,13.27
2019-05-20T20:15:15.802Z,13.33
2019-05-20T20:17:45.134Z,13.36
2019-05-20T20:20:14.535Z,13.33
2019-05-20T20:22:43.842Z,13.35
2019-05-20T20:25:14.008Z,13.20
2019-05-20T20:27:43.276Z,13.38
2019-05-20T20:30:12.858Z,13.37
2019-05-20T20:32:43.239Z,13.33
2019-05-20T20:35:13.431Z,13.41
2019-05-20T20:37:43.131Z,13.30
2019-05-20T20:40:12.994Z,13.34
2019-05-20T20:42:42.252Z,13.30
2019-05-20T20:45:12.350Z,13.38
2019-05-20T20:47:44.433Z,13.31
2019-05-20T20:50:14.757Z,13.35
2019-05-20T20:52:44.991Z,13.40
2019-05-20T20:55:14.988Z,13.24
2019-05-20T20:57:45.047Z,13.35
2019-05-20T21:00:15.072Z,13.34
2019-05-20T21:02:52.994Z,13.45
2019-05-20T21:05:15.788Z,13.45
2019-05-20T21:07:45.069Z,13.45
2019-05-20T21:10:16.038Z,13.45
2019-05-20T21:12:45.504Z,13.47
2019-05-20T21:15:17.550Z,13.35
2019-05-20T21:17:47.231Z,13.47
2019-05-20T21:20:17.940Z,13.56
2019-05-20T21:22:49.004Z,13.54
2019-05-20T21:25:18.439Z,13.54
2019-05-20T21:27:47.766Z,13.43
2019-05-20T21:30:17.383Z,13.46
2019-05-20T21:32:47.128Z,13.41
2019-05-20T21:35:16.391Z,13.29
2019-05-20T21:37:46.118Z,13.47
2019-05-20T21:40:15.739Z,13.45
2019-05-20T21:42:45.158Z,13.41
2019-05-20T21:45:14.973Z,13.52
2019-05-20T21:47:44.911Z,13.48
2019-05-20T21:50:14.534Z,13.42
2019-05-20T21:52:44.019Z,13.46
2019-05-20T21:55:14.644Z,13.42
2019-05-20T21:57:44.215Z,13.48
2019-05-20T22:00:18.653Z,13.51
2019-05-20T22:02:48.425Z,13.44
2019-05-20T22:05:18.101Z,13.49
2019-05-20T22:07:47.977Z,13.46
2019-05-20T22:10:17.351Z,13.44
2019-05-20T22:12:47.182Z,13.51
2019-05-20T22:15:16.664Z,13.29
2019-05-20T22:17:47.091Z,13.34
2019-05-20T22:20:16.869Z,13.37
2019-05-20T22:23:06.114Z,13.41
2019-05-20T22:25:36.192Z,13.36
2019-05-20T22:28:05.977Z,13.40
2019-05-20T22:30:35.306Z,13.28
2019-05-20T22:33:04.733Z,13.22
2019-05-20T22:35:35.003Z,13.17
2019-05-20T22:38:04.298Z,13.32
2019-05-20T22:40:33.587Z,13.36
2019-05-20T22:43:02.957Z,13.26
2019-05-20T22:45:32.669Z,13.31
2019-05-20T22:48:02.177Z,13.30
2019-05-20T22:50:31.499Z,13.34
2019-05-20T22:53:00.790Z,13.39
2019-05-20T22:55:30.816Z,13.40
2019-05-20T22:58:00.090Z,13.41
2019-05-20T23:00:29.694Z,13.40
2019-05-20T23:02:58.979Z,13.41
2019-05-20T23:05:28.301Z,13.36
2019-05-20T23:07:58.211Z,13.42
2019-05-20T23:10:27.513Z,13.43
2019-05-20T23:12:56.963Z,13.42
2019-05-20T23:15:26.826Z,13.41
2019-05-20T23:17:57.659Z,13.42
2019-05-20T23:20:26.998Z,13.47
2019-05-20T23:22:56.289Z,13.39
2019-05-20T23:25:25.605Z,13.36
2019-05-20T23:27:54.941Z,13.32
2019-05-20T23:30:24.230Z,13.34
2019-05-20T23:32:53.506Z,13.39
2019-05-20T23:35:22.808Z,13.34
2019-05-20T23:37:52.088Z,13.43
2019-05-20T23:40:21.508Z,13.42
2019-05-20T23:42:50.808Z,13.42
2019-05-20T23:45:20.112Z,13.45
2019-05-20T23:47:49.419Z,13.45
2019-05-20T23:50:18.723Z,13.43
2019-05-20T23:52:48.021Z,13.38
2019-05-20T23:55:17.790Z,13.37
2019-05-20T23:57:48.284Z,13.46
